Time;durP1;ratioP1;P1;durP2;ratioP2;P2;SDS_P1;SDS_P2;PMS_P1;PMS_P2;Temp;Humidity;BMP_temperature;BMP_pressure;BME280_temperature;BME280_humidity;BME280_pressure;Samples;Min_cycle;Max_cycle;Signal;HPM_P1;HPM_P2
2024/03/17 00:01:36;;;;;;;13.30;3.67;;;13.30;97.90;;;;;;5007489;28;20021;-56
2024/03/17 00:04:02;;;;;;;10.52;3.70;;;13.30;97.90;;;;;;5007991;28;20086;-56
2024/03/17 00:06:28;;;;;;;11.50;3.67;;;13.30;97.90;;;;;;5007618;28;20064;-56
2024/03/17 00:08:54;;;;;;;16.00;4.50;;;13.30;97.90;;;;;;5025381;28;20030;-56
2024/03/17 00:11:20;;;;;;;16.13;3.80;;;13.30;97.90;;;;;;5025154;28;20361;-56
2024/03/17 00:13:46;;;;;;;19.10;4.15;;;13.30;97.90;;;;;;5023993;28;20022;-56
2024/03/17 00:16:13;;;;;;;15.52;4.07;;;13.30;98.00;;;;;;5025169;28;20030;-56
2024/03/17 00:18:39;;;;;;;19.48;4.25;;;13.20;97.90;;;;;;5025353;28;20034;-56
2024/03/17 00:21:04;;;;;;;21.38;4.55;;;13.20;97.90;;;;;;5023842;28;20049;-56
2024/03/17 00:23:30;;;;;;;19.67;3.90;;;13.20;97.90;;;;;;5025323;28;20026;-56
2024/03/17 00:25:56;;;;;;;16.30;3.70;;;13.20;97.90;;;;;;5007446;28;20030;-56
2024/03/17 00:28:22;;;;;;;21.10;4.22;;;13.20;97.90;;;;;;5007201;28;20049;-56
2024/03/17 00:30:47;;;;;;;20.83;3.65;;;13.20;97.90;;;;;;5007282;28;20109;-56
2024/03/17 00:33:14;;;;;;;17.08;3.88;;;13.20;97.80;;;;;;4991020;28;20058;-56
2024/03/17 00:35:39;;;;;;;13.80;3.53;;;13.20;97.80;;;;;;5024683;28;20079;-56
2024/03/17 00:38:10;;;;;;;17.98;3.83;;;13.20;97.90;;;;;;5023618;28;20135;-56
2024/03/17 00:40:37;;;;;;;16.48;3.58;;;13.10;97.90;;;;;;4991377;28;20033;-56
2024/03/17 00:43:02;;;;;;;16.25;4.32;;;13.10;97.90;;;;;;5007194;28;20057;-56
2024/03/17 00:45:28;;;;;;;8.40;3.10;;;13.10;98.00;;;;;;5024878;28;20030;-56
2024/03/17 00:47:53;;;;;;;12.02;3.13;;;13.10;98.00;;;;;;5007391;28;20045;-56
2024/03/17 00:50:19;;;;;;;15.98;3.47;;;13.10;98.00;;;;;;5007495;28;20042;-57
2024/03/17 00:52:45;;;;;;;12.95;3.50;;;13.10;98.00;;;;;;5007159;28;20088;-56
2024/03/17 00:55:10;;;;;;;21.23;3.90;;;13.10;98.10;;;;;;5007015;28;20036;-56
2024/03/17 00:57:37;;;;;;;15.15;3.75;;;13.10;98.10;;;;;;5006929;28;20033;-56
2024/03/17 01:00:04;;;;;;;12.10;2.97;;;13.00;98.00;;;;;;5007065;28;20469;-56
2024/03/17 01:02:30;;;;;;;9.95;3.10;;;13.00;98.00;;;;;;5024254;28;20105;-56
2024/03/17 01:04:55;;;;;;;10.70;3.22;;;13.00;98.00;;;;;;5006840;28;20057;-56
2024/03/17 01:07:21;;;;;;;11.02;3.22;;;13.00;98.00;;;;;;5024421;28;20129;-56
2024/03/17 01:09:49;;;;;;;8.65;3.20;;;13.00;98.10;;;;;;5007009;28;20033;-56
2024/03/17 01:12:15;;;;;;;9.23;2.80;;;13.00;98.10;;;;;;5024299;28;20444;-56
2024/03/17 01:14:41;;;;;;;12.40;3.70;;;13.00;98.10;;;;;;5024302;28;20034;-56
2024/03/17 01:17:06;;;;;;;13.85;3.88;;;13.00;98.10;;;;;;5006507;28;20030;-56
2024/03/17 01:19:32;;;;;;;14.35;3.53;;;13.00;98.10;;;;;;5006418;28;20429;-56
2024/03/17 01:22:00;;;;;;;7.22;2.60;;;13.00;98.10;;;;;;5006652;28;20032;-56
2024/03/17 01:24:31;;;;;;;9.40;3.55;;;13.00;98.00;;;;;;5006825;28;20030;-56
2024/03/17 01:26:59;;;;;;;12.32;3.35;;;13.00;98.10;;;;;;5007332;28;20037;-57
2024/03/17 01:29:25;;;;;;;13.80;3.30;;;12.90;98.00;;;;;;5024407;28;20049;-56
2024/03/17 01:31:51;;;;;;;11.63;3.25;;;12.90;98.00;;;;;;5006585;28;20034;-56
2024/03/17 01:34:18;;;;;;;12.70;3.05;;;12.90;98.00;;;;;;5022586;28;20109;-56
2024/03/17 01:36:44;;;;;;;11.07;3.15;;;12.90;98.00;;;;;;5024123;28;20034;-56
2024/03/17 01:39:09;;;;;;;9.50;2.97;;;12.90;98.00;;;;;;5006250;28;20112;-56
2024/03/17 01:41:35;;;;;;;10.55;3.03;;;12.90;98.30;;;;;;5010015;28;20019;-56
2024/03/17 01:44:00;;;;;;;9.45;3.03;;;12.90;98.10;;;;;;5028140;28;20057;-56
2024/03/17 01:46:26;;;;;;;9.15;3.47;;;12.90;98.20;;;;;;5027953;28;20049;-56
2024/03/17 01:48:51;;;;;;;12.55;3.67;;;12.90;98.20;;;;;;5027987;28;20049;-56
2024/03/17 01:51:17;;;;;;;11.93;2.92;;;12.80;98.20;;;;;;5010166;28;20349;-56
2024/03/17 01:53:43;;;;;;;9.70;3.20;;;12.80;98.20;;;;;;5010049;28;20060;-56
2024/03/17 01:56:10;;;;;;;7.82;2.78;;;12.80;98.20;;;;;;5010152;28;20026;-56
2024/03/17 01:58:36;;;;;;;7.97;3.00;;;12.80;98.20;;;;;;5042884;28;20425;-56
2024/03/17 02:01:04;;;;;;;7.15;2.63;;;12.80;98.20;;;;;;4993546;28;20056;-56
2024/03/17 02:03:29;;;;;;;15.43;2.92;;;12.80;98.10;;;;;;5026470;28;20030;-56
2024/03/17 02:05:55;;;;;;;11.35;3.33;;;12.80;98.20;;;;;;5010030;28;20030;-56
2024/03/17 02:08:22;;;;;;;8.57;3.22;;;12.80;98.20;;;;;;5009897;28;20076;-56
2024/03/17 02:10:55;;;;;;;14.93;3.42;;;12.80;98.20;;;;;;5010141;28;20064;-56
2024/03/17 02:13:21;;;;;;;9.90;3.08;;;12.80;98.20;;;;;;5010339;28;20045;-57
2024/03/17 02:15:47;;;;;;;7.68;2.90;;;12.80;98.20;;;;;;5009690;28;20093;-56
2024/03/17 02:18:13;;;;;;;10.07;3.33;;;12.80;98.20;;;;;;5009938;28;20057;-57
2024/03/17 02:21:01;;;;;;;7.68;2.90;;;12.80;98.20;;;;;;4993483;28;20030;-56
2024/03/17 02:23:26;;;;;;;6.95;2.72;;;12.80;98.20;;;;;;5012888;28;20025;-56
2024/03/17 02:25:53;;;;;;;6.97;2.17;;;12.70;98.20;;;;;;5027322;28;20088;-56
2024/03/17 02:28:19;;;;;;;8.10;2.70;;;12.80;98.20;;;;;;5009566;28;20425;-56
2024/03/17 02:30:44;;;;;;;12.05;2.88;;;12.70;98.20;;;;;;5027224;28;20049;-57
2024/03/17 02:33:10;;;;;;;9.35;3.13;;;12.70;98.20;;;;;;5027552;28;20049;-56
2024/03/17 02:35:36;;;;;;;7.65;2.22;;;12.70;98.20;;;;;;5026214;28;20026;-56
2024/03/17 02:38:02;;;;;;;10.50;2.70;;;12.70;98.20;;;;;;5025875;28;20037;-56
2024/03/17 02:40:28;;;;;;;7.30;2.67;;;12.70;98.30;;;;;;5027046;28;20022;-56
2024/03/17 02:42:55;;;;;;;7.13;2.90;;;12.70;98.30;;;;;;5027276;28;20022;-57
2024/03/17 02:45:21;;;;;;;5.07;2.47;;;12.70;98.30;;;;;;5025649;28;20041;-56
2024/03/17 02:47:46;;;;;;;5.10;2.40;;;12.70;98.20;;;;;;5025447;28;20037;-56
2024/03/17 02:50:13;;;;;;;8.70;2.70;;;12.60;98.20;;;;;;5025564;28;20034;-56
2024/03/17 02:52:38;;;;;;;7.95;2.55;;;12.60;98.20;;;;;;5025460;28;20513;-56
2024/03/17 02:55:05;;;;;;;8.35;2.60;;;12.60;98.20;;;;;;5008907;28;20042;-56
2024/03/17 02:57:32;;;;;;;8.25;2.65;;;12.60;98.30;;;;;;5008969;28;20022;-56
2024/03/17 03:00:03;;;;;;;8.60;3.03;;;12.60;98.20;;;;;;5009400;28;20176;-56
2024/03/17 03:02:29;;;;;;;6.18;2.30;;;12.60;98.30;;;;;;5026612;28;20034;-56
2024/03/17 03:04:55;;;;;;;10.57;2.70;;;12.60;98.20;;;;;;5008802;28;20033;-56
2024/03/17 03:07:20;;;;;;;10.27;2.67;;;12.60;98.20;;;;;;5026508;28;20030;-56
2024/03/17 03:09:47;;;;;;;4.93;2.30;;;12.60;98.20;;;;;;5026374;28;20061;-56
2024/03/17 03:12:12;;;;;;;8.45;2.33;;;12.60;98.20;;;;;;5025687;28;20052;-55
2024/03/17 03:14:38;;;;;;;6.30;2.47;;;12.60;98.20;;;;;;5009410;28;20448;-56
2024/03/17 03:17:03;;;;;;;6.50;2.63;;;12.60;98.20;;;;;;5026513;28;20053;-56
2024/03/17 03:19:30;;;;;;;7.10;2.70;;;12.50;98.20;;;;;;5008824;28;20030;-56
2024/03/17 03:21:55;;;;;;;7.45;2.20;;;12.50;98.20;;;;;;5026402;28;20034;-56
2024/03/17 03:24:21;;;;;;;6.40;2.33;;;12.50;98.30;;;;;;5026362;28;20123;-56
2024/03/17 03:26:48;;;;;;;5.18;2.20;;;12.50;98.30;;;;;;5008542;28;20029;-57
2024/03/17 03:29:14;;;;;;;6.95;2.40;;;12.50;98.30;;;;;;5008544;28;20062;-56
2024/03/17 03:31:40;;;;;;;9.18;2.47;;;12.50;98.30;;;;;;5008489;28;20026;-56
2024/03/17 03:34:07;;;;;;;5.13;2.00;;;12.40;98.20;;;;;;5008444;28;20034;-56
2024/03/17 03:36:33;;;;;;;8.60;2.45;;;12.40;98.30;;;;;;5008596;28;20029;-56
2024/03/17 03:38:59;;;;;;;2.90;1.85;;;12.40;98.20;;;;;;5024725;28;20041;-57
2024/03/17 03:41:25;;;;;;;9.15;2.45;;;12.40;98.20;;;;;;5008346;28;20026;-56
2024/03/17 03:43:50;;;;;;;5.53;2.00;;;12.40;98.30;;;;;;5008366;28;20042;-56
2024/03/17 03:46:16;;;;;;;5.25;2.10;;;12.40;98.30;;;;;;5008265;28;20388;-57
2024/03/17 03:48:42;;;;;;;7.57;2.25;;;12.40;98.30;;;;;;4991938;28;20049;-56
2024/03/17 03:51:09;;;;;;;4.57;2.25;;;12.30;98.30;;;;;;5025986;28;20034;-56
2024/03/17 03:53:35;;;;;;;4.75;2.03;;;12.30;98.40;;;;;;5025665;28;20033;-56
2024/03/17 03:56:05;;;;;;;6.60;2.40;;;12.30;98.40;;;;;;4991686;28;20160;-57
2024/03/17 03:58:37;;;;;;;7.65;2.33;;;12.30;98.40;;;;;;5008915;28;20068;-56
2024/03/17 04:01:06;;;;;;;7.47;2.42;;;12.30;98.40;;;;;;5025117;28;20141;-56
2024/03/17 04:03:33;;;;;;;7.32;2.63;;;12.30;98.30;;;;;;5025486;28;20037;-56
2024/03/17 04:06:10;;;;;;;4.05;1.83;;;12.30;98.40;;;;;;5008078;28;20033;-56
2024/03/17 04:08:37;;;;;;;7.22;1.98;;;12.30;98.30;;;;;;5025731;28;20034;-56
2024/03/17 04:11:03;;;;;;;5.85;2.30;;;12.20;98.30;;;;;;5025541;28;20065;-57
2024/03/17 04:13:33;;;;;;;8.70;2.30;;;12.20;98.40;;;;;;5007816;28;20030;-56
2024/03/17 04:15:59;;;;;;;7.05;2.30;;;12.20;98.30;;;;;;5025314;28;20026;-56
2024/03/17 04:18:25;;;;;;;6.20;2.28;;;12.20;98.40;;;;;;5025468;28;20134;-57
2024/03/17 04:20:53;;;;;;;6.05;2.60;;;12.20;98.40;;;;;;5025282;28;20088;-56
2024/03/17 04:23:19;;;;;;;6.43;2.05;;;12.20;98.30;;;;;;5007548;28;20026;-57
2024/03/17 04:25:45;;;;;;;4.72;2.58;;;12.10;98.30;;;;;;5007664;28;20030;-56
2024/03/17 04:28:11;;;;;;;7.95;2.45;;;12.10;98.30;;;;;;4991272;28;20076;-56
2024/03/17 04:30:36;;;;;;;5.72;2.00;;;12.10;98.30;;;;;;5025116;28;20030;-56
2024/03/17 04:33:03;;;;;;;5.07;2.40;;;12.10;98.30;;;;;;5023773;28;20040;-56
2024/03/17 04:35:29;;;;;;;7.22;2.47;;;12.10;98.30;;;;;;5007172;28;20088;-56
2024/03/17 04:37:57;;;;;;;4.95;2.13;;;12.10;98.30;;;;;;5007387;28;20033;-56
2024/03/17 04:40:22;;;;;;;5.00;1.95;;;12.10;98.30;;;;;;5023781;28;20049;-56
2024/03/17 04:42:48;;;;;;;4.53;1.95;;;12.10;98.30;;;;;;5023527;28;20030;-56
2024/03/17 04:45:13;;;;;;;6.43;2.30;;;12.00;98.30;;;;;;5025024;28;20061;-56
2024/03/17 04:47:39;;;;;;;3.22;1.90;;;12.00;98.30;;;;;;5007108;28;20037;-56
2024/03/17 04:50:05;;;;;;;4.00;1.80;;;12.00;98.30;;;;;;5007094;28;20030;-56
2024/03/17 04:52:31;;;;;;;4.13;2.55;;;12.00;98.40;;;;;;5039748;28;20061;-56
2024/03/17 04:54:57;;;;;;;4.10;2.00;;;12.00;98.30;;;;;;4990825;28;20045;-56
2024/03/17 04:57:22;;;;;;;3.90;1.98;;;12.00;98.40;;;;;;5023382;28;20081;-56
2024/03/17 04:59:48;;;;;;;3.53;1.80;;;11.90;98.30;;;;;;5024716;28;20030;-56
2024/03/17 05:02:13;;;;;;;5.07;2.08;;;12.00;98.40;;;;;;5007101;28;20081;-56
2024/03/17 05:04:39;;;;;;;4.78;1.90;;;11.90;98.30;;;;;;5007086;28;20034;-57
2024/03/17 05:07:05;;;;;;;7.35;2.40;;;11.90;98.30;;;;;;5024645;28;20026;-56
2024/03/17 05:09:31;;;;;;;4.13;1.92;;;11.90;98.40;;;;;;5006931;28;20060;-56
2024/03/17 05:11:56;;;;;;;7.40;2.30;;;11.90;98.40;;;;;;5024688;28;20037;-57
2024/03/17 05:14:22;;;;;;;3.75;1.98;;;11.80;98.40;;;;;;5022546;28;20041;-56
2024/03/17 05:16:51;;;;;;;4.38;2.13;;;11.80;98.40;;;;;;5007091;28;20022;-56
2024/03/17 05:19:17;;;;;;;4.53;2.00;;;11.80;98.40;;;;;;5006979;28;20396;-56
2024/03/17 05:21:44;;;;;;;4.20;2.25;;;11.80;98.40;;;;;;5006976;28;20121;-56
2024/03/17 05:24:10;;;;;;;3.20;1.70;;;11.80;98.70;;;;;;5025012;28;20030;-57
2024/03/17 05:26:36;;;;;;;4.43;1.90;;;11.70;98.40;;;;;;4990524;28;20445;-56
2024/03/17 05:29:02;;;;;;;5.40;2.30;;;11.70;98.40;;;;;;5006898;28;20057;-57
2024/03/17 05:31:28;;;;;;;4.22;1.92;;;11.70;98.40;;;;;;5006502;28;20022;-57
2024/03/17 05:33:53;;;;;;;3.83;1.80;;;11.70;98.40;;;;;;5006826;28;20496;-56
2024/03/17 05:36:22;;;;;;;4.18;1.80;;;11.70;98.40;;;;;;5006525;28;20037;-56
2024/03/17 05:38:47;;;;;;;5.65;1.88;;;11.70;98.40;;;;;;5007202;28;20026;-56
2024/03/17 05:41:13;;;;;;;2.95;1.63;;;11.70;98.40;;;;;;5006756;28;20026;-56
2024/03/17 05:43:39;;;;;;;7.70;1.88;;;11.70;98.40;;;;;;5023084;28;20077;-56
2024/03/17 05:46:08;;;;;;;3.08;1.77;;;11.70;98.40;;;;;;5024499;28;20117;-56
2024/03/17 05:48:38;;;;;;;4.28;1.70;;;11.70;98.40;;;;;;5024403;28;20117;-56
2024/03/17 05:51:05;;;;;;;3.15;1.83;;;11.60;98.40;;;;;;5024296;28;20165;-56
2024/03/17 05:53:31;;;;;;;5.93;1.80;;;11.60;98.40;;;;;;5006643;28;20050;-56
2024/03/17 05:55:59;;;;;;;4.30;1.80;;;11.60;98.40;;;;;;5006711;28;20034;-56
2024/03/17 05:58:24;;;;;;;3.53;1.95;;;11.60;98.40;;;;;;5006542;28;20121;-56
2024/03/17 06:00:50;;;;;;;4.00;1.92;;;11.60;98.40;;;;;;5006735;28;20124;-56
2024/03/17 06:03:17;;;;;;;3.08;1.85;;;11.60;98.40;;;;;;5006214;28;20034;-56
2024/03/17 06:05:43;;;;;;;4.80;1.80;;;11.60;98.30;;;;;;5006885;28;20093;-56
2024/03/17 06:08:08;;;;;;;2.47;1.58;;;11.60;98.30;;;;;;5024218;28;20092;-56
2024/03/17 06:10:35;;;;;;;3.20;1.70;;;11.60;98.30;;;;;;5006435;28;20041;-56
2024/03/17 06:13:01;;;;;;;5.25;2.00;;;11.60;98.20;;;;;;5022757;28;20044;-56
2024/03/17 06:15:27;;;;;;;5.03;1.85;;;11.60;98.20;;;;;;5022659;28;20046;-56
2024/03/17 06:17:53;;;;;;;3.67;1.50;;;11.60;98.20;;;;;;5039092;28;20524;-56
2024/03/17 06:20:28;;;;;;;3.97;1.60;;;11.60;98.30;;;;;;5006568;28;20034;-56
2024/03/17 06:22:54;;;;;;;3.83;1.85;;;11.60;98.40;;;;;;5006795;28;20034;-56
2024/03/17 06:25:23;;;;;;;4.45;1.75;;;11.60;98.30;;;;;;5022857;28;20480;-56
2024/03/17 06:27:51;;;;;;;4.78;1.67;;;11.50;98.30;;;;;;5010154;28;20037;-57
2024/03/17 06:30:17;;;;;;;2.75;1.63;;;11.50;98.30;;;;;;5026191;28;20076;-56
2024/03/17 06:32:46;;;;;;;5.50;1.73;;;11.50;98.40;;;;;;5026087;28;20034;-56
2024/03/17 06:35:25;;;;;;;3.88;1.85;;;11.50;98.40;;;;;;5025360;28;20025;-56
2024/03/17 06:37:52;;;;;;;6.22;2.10;;;11.50;98.40;;;;;;5026176;28;20093;-56
2024/03/17 06:40:17;;;;;;;5.25;2.03;;;11.50;98.40;;;;;;5009749;28;20030;-56
2024/03/17 06:42:43;;;;;;;3.15;1.67;;;11.50;98.40;;;;;;5009386;28;20040;-56
2024/03/17 06:45:09;;;;;;;3.95;1.65;;;11.50;98.40;;;;;;5009651;28;20089;-56
2024/03/17 06:47:38;;;;;;;3.63;1.90;;;11.50;98.40;;;;;;5009366;28;20132;-56
2024/03/17 06:50:04;;;;;;;4.72;1.90;;;11.50;98.40;;;;;;5009159;28;20399;-56
2024/03/17 06:52:30;;;;;;;3.05;1.60;;;11.50;98.40;;;;;;5009063;28;20046;-56
2024/03/17 06:54:58;;;;;;;2.42;1.55;;;11.50;98.40;;;;;;5025485;28;20038;-56
2024/03/17 06:57:24;;;;;;;3.45;1.73;;;11.50;98.50;;;;;;5009551;28;20089;-57
2024/03/17 06:59:50;;;;;;;3.85;1.80;;;11.50;98.50;;;;;;5008966;28;20026;-56
2024/03/17 07:02:18;;;;;;;5.22;2.17;;;11.50;98.40;;;;;;4992954;28;20028;-57
2024/03/17 07:04:44;;;;;;;3.40;1.70;;;11.50;98.40;;;;;;5025414;28;20037;-56
2024/03/17 07:07:09;;;;;;;4.25;2.00;;;11.50;98.40;;;;;;5026795;28;20053;-57
2024/03/17 07:09:35;;;;;;;3.65;1.70;;;11.50;98.30;;;;;;5009075;28;20030;-56
2024/03/17 07:12:01;;;;;;;4.30;2.00;;;11.50;98.30;;;;;;5008877;28;20049;-56
2024/03/17 07:14:27;;;;;;;4.05;1.80;;;11.50;98.30;;;;;;5026593;28;20045;-56
2024/03/17 07:16:53;;;;;;;4.93;1.88;;;11.50;98.30;;;;;;5008755;28;20025;-56
2024/03/17 07:19:19;;;;;;;5.03;1.92;;;11.50;98.30;;;;;;5026357;28;20053;-56
2024/03/17 07:21:44;;;;;;;4.15;1.80;;;11.50;98.30;;;;;;5026455;28;20095;-56
2024/03/17 07:24:10;;;;;;;2.85;1.73;;;11.50;98.30;;;;;;4992458;28;20026;-56
2024/03/17 07:26:35;;;;;;;6.22;2.30;;;11.50;98.30;;;;;;5008505;28;20448;-56
2024/03/17 07:29:01;;;;;;;4.80;1.90;;;11.50;98.30;;;;;;5008717;28;20034;-56
2024/03/17 07:31:27;;;;;;;3.95;1.83;;;11.50;98.30;;;;;;5026199;28;20022;-56
2024/03/17 07:33:52;;;;;;;3.80;1.67;;;11.50;98.30;;;;;;5026394;28;20038;-56
2024/03/17 07:36:18;;;;;;;4.78;2.10;;;11.50;98.40;;;;;;5024675;28;20100;-56
2024/03/17 07:38:44;;;;;;;4.22;1.60;;;11.50;98.30;;;;;;5007941;28;20400;-57
2024/03/17 07:41:09;;;;;;;3.53;2.15;;;11.50;98.30;;;;;;5008701;28;20081;-57
2024/03/17 07:43:37;;;;;;;2.55;1.52;;;11.50;98.30;;;;;;5008390;28;20101;-57
2024/03/17 07:46:04;;;;;;;3.70;2.00;;;11.50;98.30;;;;;;5026119;28;20460;-56
2024/03/17 07:48:31;;;;;;;6.03;1.98;;;11.50;98.20;;;;;;5024970;28;20034;-57
2024/03/17 07:51:02;;;;;;;3.80;2.03;;;11.50;98.30;;;;;;5026255;28;20034;-56
2024/03/17 07:53:27;;;;;;;5.38;2.17;;;11.50;98.20;;;;;;5024569;28;20136;-56
2024/03/17 07:56:00;;;;;;;3.55;1.95;;;11.50;98.20;;;;;;5008051;28;20107;-56
2024/03/17 07:58:26;;;;;;;4.40;1.92;;;11.50;98.20;;;;;;5024580;28;20060;-56
2024/03/17 08:00:53;;;;;;;2.83;1.85;;;11.60;98.30;;;;;;5007966;28;20093;-56
2024/03/17 08:03:19;;;;;;;4.25;1.85;;;11.60;98.20;;;;;;5025861;28;20022;-56
2024/03/17 08:05:51;;;;;;;4.03;2.22;;;11.60;98.20;;;;;;5008051;28;20109;-56
2024/03/17 08:08:20;;;;;;;3.38;1.88;;;11.60;98.10;;;;;;5008459;28;20076;-56
2024/03/17 08:10:48;;;;;;;4.85;2.13;;;11.60;98.10;;;;;;5024748;28;20076;-56
2024/03/17 08:13:16;;;;;;;2.45;1.70;;;11.60;98.10;;;;;;5008181;28;20030;-56
2024/03/17 08:15:43;;;;;;;3.25;1.80;;;11.60;98.10;;;;;;5008049;28;20034;-56
2024/03/17 08:18:09;;;;;;;3.30;2.10;;;11.60;98.00;;;;;;5025561;28;20030;-56
2024/03/17 08:20:39;;;;;;;4.63;2.10;;;11.70;98.00;;;;;;5025395;28;20477;-56
2024/03/17 08:23:05;;;;;;;3.65;1.98;;;11.70;98.00;;;;;;5025502;28;20076;-56
2024/03/17 08:25:31;;;;;;;6.47;1.92;;;11.70;98.00;;;;;;5025248;28;20022;-56
2024/03/17 08:27:57;;;;;;;3.75;1.95;;;11.70;98.00;;;;;;5025091;28;20140;-56
2024/03/17 08:30:22;;;;;;;4.70;2.22;;;11.70;97.90;;;;;;5025153;28;20120;-56
2024/03/17 08:32:48;;;;;;;3.17;1.92;;;11.70;97.90;;;;;;5025291;28;20029;-56
2024/03/17 08:35:14;;;;;;;5.35;1.92;;;11.70;97.80;;;;;;5024965;28;20026;-56
2024/03/17 08:37:40;;;;;;;5.18;2.08;;;11.80;97.80;;;;;;5025283;28;20022;-55
2024/03/17 08:40:06;;;;;;;3.47;1.60;;;11.80;97.70;;;;;;5007791;28;20026;-56
2024/03/17 08:42:32;;;;;;;3.58;2.13;;;11.80;97.70;;;;;;5023900;28;20026;-56
2024/03/17 08:44:58;;;;;;;2.85;1.80;;;11.80;97.70;;;;;;5007895;28;20032;-56
2024/03/17 08:47:24;;;;;;;4.00;1.98;;;11.80;97.80;;;;;;5007395;28;20030;-56
2024/03/17 08:49:52;;;;;;;3.25;2.00;;;11.90;97.70;;;;;;5006506;28;20049;-55
2024/03/17 08:52:18;;;;;;;3.92;1.70;;;11.90;97.70;;;;;;5024726;28;20026;-56
2024/03/17 08:54:52;;;;;;;3.50;1.75;;;11.90;97.70;;;;;;5024675;28;20030;-56
2024/03/17 08:57:18;;;;;;;5.32;1.90;;;11.90;97.70;;;;;;5024909;28;20033;-56
2024/03/17 08:59:46;;;;;;;3.75;2.42;;;11.90;97.70;;;;;;5024796;28;20036;-56
2024/03/17 09:02:14;;;;;;;4.75;2.05;;;12.00;97.90;;;;;;5007075;28;20018;-56
2024/03/17 09:04:40;;;;;;;3.30;1.95;;;12.00;98.00;;;;;;5023598;28;20052;-56
2024/03/17 09:07:06;;;;;;;4.05;1.92;;;12.00;98.00;;;;;;5006917;28;20120;-56
2024/03/17 09:09:31;;;;;;;3.42;2.17;;;12.00;97.90;;;;;;4990719;28;20466;-57
2024/03/17 09:11:57;;;;;;;2.53;1.77;;;12.00;97.90;;;;;;5024528;28;20037;-56
2024/03/17 09:14:23;;;;;;;3.78;2.10;;;12.10;98.40;;;;;;5006707;28;20030;-56
2024/03/17 09:16:48;;;;;;;6.30;2.50;;;12.10;98.60;;;;;;5024222;28;20033;-56
2024/03/17 09:19:14;;;;;;;4.40;2.20;;;12.10;98.40;;;;;;5024504;28;20069;-56
2024/03/17 09:21:40;;;;;;;6.75;2.13;;;12.10;98.30;;;;;;5023013;28;20451;-56
2024/03/17 09:24:09;;;;;;;5.72;2.20;;;12.20;98.80;;;;;;5006386;28;20042;-56
2024/03/17 09:26:35;;;;;;;6.80;2.50;;;12.20;98.60;;;;;;5024328;28;20018;-56
2024/03/17 09:29:01;;;;;;;12.50;2.70;;;12.20;98.50;;;;;;5006694;28;20057;-56
2024/03/17 09:31:27;;;;;;;5.80;2.28;;;12.30;98.90;;;;;;5022978;28;20450;-56
2024/03/17 09:33:52;;;;;;;20.95;4.10;;;12.30;99.00;;;;;;5024112;28;20150;-56
2024/03/17 09:36:18;;;;;;;34.35;3.72;;;12.30;98.90;;;;;;4989816;28;20072;-56
2024/03/17 09:38:45;;;;;;;38.20;5.43;;;12.30;98.90;;;;;;5022734;28;20080;-56
2024/03/17 09:41:26;;;;;;;31.35;5.35;;;12.30;99.10;;;;;;5026792;28;20018;-56
2024/03/17 09:43:58;;;;;;;27.65;4.63;;;12.40;99.20;;;;;;5010287;28;20034;-56
2024/03/17 09:46:25;;;;;;;65.38;6.35;;;12.50;99.30;;;;;;4990228;28;20074;-56
2024/03/17 09:48:51;;;;;;;59.75;6.30;;;12.50;99.30;;;;;;4981088;28;20044;-57
2024/03/17 09:51:38;;;;;;;67.20;7.50;;;12.60;99.50;;;;;;5005271;28;20025;-55
2024/03/17 09:54:19;;;;;;;56.42;7.15;;;12.60;99.40;;;;;;4990716;28;20042;-56
2024/03/17 09:56:44;;;;;;;72.45;8.45;;;12.60;99.40;;;;;;4996885;28;20033;-56
2024/03/17 09:59:10;;;;;;;276.77;24.35;;;12.70;99.50;;;;;;5010060;28;20026;-56
2024/03/17 10:01:36;;;;;;;115.25;10.95;;;12.70;99.40;;;;;;5007749;28;20034;-56
2024/03/17 10:04:04;;;;;;;103.28;11.25;;;12.80;99.50;;;;;;4975802;28;20029;-56
2024/03/17 10:06:29;;;;;;;368.55;31.75;;;12.80;99.50;;;;;;4992525;28;20030;-56
2024/03/17 10:08:56;;;;;;;99.05;11.43;;;12.80;99.60;;;;;;4988152;28;20042;-56
2024/03/17 10:11:35;;;;;;;128.07;11.98;;;12.90;99.60;;;;;;5014245;28;20121;-56
2024/03/17 10:14:08;;;;;;;110.88;11.45;;;12.90;99.60;;;;;;4998048;28;20029;-56
2024/03/17 10:16:37;;;;;;;414.30;32.90;;;12.90;99.60;;;;;;4994141;28;20073;-56
2024/03/17 10:19:13;;;;;;;124.97;12.45;;;13.00;99.50;;;;;;4997342;28;20025;-56
2024/03/17 10:21:39;;;;;;;107.72;11.93;;;13.00;99.60;;;;;;5012418;28;20054;-56
2024/03/17 10:24:21;;;;;;;141.45;11.35;;;13.00;99.60;;;;;;4976371;28;20034;-56
2024/03/17 10:26:49;;;;;;;129.95;14.70;;;13.10;99.90;;;;;;5011282;28;20084;-56
2024/03/17 10:29:35;;;;;;;108.35;14.30;;;13.10;99.90;;;;;;5010448;28;20037;-56
2024/03/17 10:32:15;;;;;;;134.73;12.88;;;13.10;99.90;;;;;;4999040;28;20019;-56
2024/03/17 10:34:41;;;;;;;118.40;13.98;;;13.10;99.90;;;;;;5005983;28;20045;-56
2024/03/17 10:37:13;;;;;;;113.18;12.23;;;13.20;99.90;;;;;;5027497;28;20101;-56
2024/03/17 10:39:40;;;;;;;128.00;13.38;;;13.20;99.90;;;;;;5037235;28;20120;-56
2024/03/17 10:42:07;;;;;;;545.50;57.42;;;13.20;99.90;;;;;;5015157;28;20022;-56
2024/03/17 10:44:36;;;;;;;189.60;19.77;;;13.30;99.90;;;;;;5010072;28;20140;-56
2024/03/17 10:47:02;;;;;;;191.55;19.90;;;13.30;99.90;;;;;;4993406;28;20122;-56
2024/03/17 10:49:30;;;;;;;204.13;18.73;;;13.30;99.90;;;;;;5007342;28;20038;-56
2024/03/17 10:51:58;;;;;;;437.23;41.10;;;13.40;99.90;;;;;;5009371;28;20041;-56
2024/03/17 10:54:28;;;;;;;490.77;42.58;;;13.40;99.90;;;;;;4999652;28;20057;-56
2024/03/17 10:56:55;;;;;;;239.98;22.42;;;13.50;99.90;;;;;;5011346;28;20033;-56
2024/03/17 10:59:22;;;;;;;235.77;23.77;;;13.50;99.90;;;;;;4990814;28;20114;-56
2024/03/17 11:01:49;;;;;;;226.07;22.25;;;13.60;99.90;;;;;;5009970;28;20060;-56
2024/03/17 11:04:14;;;;;;;211.18;20.60;;;13.60;99.90;;;;;;4989530;28;20120;-56
2024/03/17 11:06:40;;;;;;;214.88;21.27;;;13.70;99.90;;;;;;5005791;28;20450;-56
2024/03/17 11:09:08;;;;;;;190.93;18.80;;;13.70;99.90;;;;;;4979070;28;20034;-56
2024/03/17 11:11:42;;;;;;;178.30;16.83;;;13.70;99.90;;;;;;4994226;28;20030;-56
2024/03/17 11:14:22;;;;;;;234.82;22.00;;;13.70;99.90;;;;;;5006763;28;20476;-56
2024/03/17 11:16:47;;;;;;;270.40;29.67;;;13.70;99.90;;;;;;5020985;28;20030;-56
2024/03/17 11:19:17;;;;;;;140.57;18.52;;;13.80;99.90;;;;;;4986118;28;20030;-56
2024/03/17 11:21:43;;;;;;;291.52;29.40;;;13.80;99.90;;;;;;5007678;28;20022;-56
2024/03/17 11:24:21;;;;;;;241.27;22.42;;;13.80;99.90;;;;;;5009153;28;20026;-56
2024/03/17 11:26:47;;;;;;;239.90;20.73;;;13.90;99.90;;;;;;5008965;28;20033;-56
2024/03/17 11:29:28;;;;;;;144.50;15.02;;;14.00;99.90;;;;;;4996797;28;20053;-56
2024/03/17 11:31:55;;;;;;;127.85;15.98;;;14.00;99.90;;;;;;5036033;28;20022;-56
2024/03/17 11:34:31;;;;;;;138.43;13.32;;;14.00;99.90;;;;;;5008545;28;20479;-56
2024/03/17 11:36:58;;;;;;;212.70;20.10;;;14.10;99.70;;;;;;5025944;28;20045;-56
2024/03/17 11:39:57;;;;;;;289.88;28.52;;;14.10;99.90;;;;;;5003254;28;20120;-56
2024/03/17 11:42:23;;;;;;;206.32;23.92;;;14.20;99.90;;;;;;5022179;28;20084;-56
2024/03/17 11:44:59;;;;;;;192.77;20.73;;;14.20;99.90;;;;;;4989847;28;20053;-56
2024/03/17 11:47:33;;;;;;;185.18;19.02;;;14.30;99.90;;;;;;5005189;28;20090;-56
2024/03/17 11:50:01;;;;;;;212.70;21.15;;;14.30;99.90;;;;;;5006866;28;20060;-56
2024/03/17 11:52:26;;;;;;;231.57;23.90;;;14.30;99.90;;;;;;4972385;28;20089;-56
2024/03/17 11:54:52;;;;;;;245.98;23.15;;;14.30;99.90;;;;;;5024603;28;20067;-56
2024/03/17 11:57:24;;;;;;;226.05;24.77;;;14.40;99.90;;;;;;5006390;28;20029;-56
2024/03/17 11:59:49;;;;;;;242.38;23.90;;;14.40;99.80;;;;;;5006264;28;20030;-56
2024/03/17 12:02:29;;;;;;;242.63;25.23;;;14.50;99.70;;;;;;4988177;28;20057;-56
2024/03/17 12:05:02;;;;;;;257.90;24.80;;;14.50;99.40;;;;;;4981118;28;20049;-56
2024/03/17 12:07:29;;;;;;;398.08;39.42;;;14.50;99.30;;;;;;5015611;28;20030;-56
2024/03/17 12:09:56;;;;;;;277.50;27.02;;;14.60;99.40;;;;;;4992180;28;20043;-56
2024/03/17 12:12:34;;;;;;;256.15;28.08;;;14.60;99.50;;;;;;5004566;28;20041;-56
2024/03/17 12:15:00;;;;;;;245.70;26.95;;;14.70;99.30;;;;;;4994465;28;20089;-56
2024/03/17 12:17:26;;;;;;;359.13;35.92;;;14.70;99.20;;;;;;4991277;28;20079;-56
2024/03/17 12:19:55;;;;;;;254.63;25.77;;;14.80;99.30;;;;;;5018816;28;20484;-56
2024/03/17 12:22:22;;;;;;;240.70;24.80;;;14.80;99.10;;;;;;5004616;28;20084;-56
2024/03/17 12:24:49;;;;;;;487.50;46.97;;;14.80;99.00;;;;;;5010548;28;20041;-56
2024/03/17 12:27:22;;;;;;;272.88;28.35;;;14.80;98.80;;;;;;5023769;28;20081;-56
2024/03/17 12:29:48;;;;;;;267.73;24.67;;;14.80;98.60;;;;;;5006077;28;20128;-56
2024/03/17 12:32:21;;;;;;;296.83;29.98;;;14.80;98.80;;;;;;5020675;28;20030;-56
2024/03/17 12:34:50;;;;;;;372.67;39.60;;;14.90;98.90;;;;;;4985257;28;20034;-56
2024/03/17 12:37:23;;;;;;;217.90;24.35;;;14.90;99.10;;;;;;5029316;28;20018;-56
2024/03/17 12:39:49;;;;;;;200.57;22.58;;;15.00;99.20;;;;;;5019481;28;20045;-56